Time;durP1;ratioP1;P1;durP2;ratioP2;P2;SDS_P1;SDS_P2;PMS_P1;PMS_P2;Temp;Humidity;BMP_temperature;BMP_pressure;BME280_temperature;BME280_humidity;BME280_pressure;Samples;Min_cycle;Max_cycle;Signal;HPM_P1;HPM_P2
2023/03/29 00:00:44;;;;;;;16.87;6.97;;;8.50;58.10;;;;;;5014249;28;20029;-71
2023/03/29 00:03:12;;;;;;;14.63;6.47;;;8.40;57.80;;;;;;5014200;28;20125;-71
2023/03/29 00:05:39;;;;;;;9.13;6.00;;;8.40;58.10;;;;;;5014499;28;20030;-71
2023/03/29 00:08:06;;;;;;;11.00;6.07;;;8.40;57.60;;;;;;5013943;28;20540;-71
2023/03/29 00:10:33;;;;;;;12.43;5.97;;;8.40;57.70;;;;;;5014051;28;20018;-71
2023/03/29 00:13:00;;;;;;;9.00;5.37;;;8.30;57.20;;;;;;5014108;28;20030;-71
2023/03/29 00:15:25;;;;;;;8.57;5.43;;;8.40;57.50;;;;;;5013974;28;20033;-70
2023/03/29 00:17:51;;;;;;;7.73;4.67;;;8.30;58.10;;;;;;5012769;28;20026;-71
2023/03/29 00:20:17;;;;;;;11.13;6.00;;;8.30;57.80;;;;;;5013860;28;20088;-71
2023/03/29 00:22:45;;;;;;;12.93;6.20;;;8.30;57.40;;;;;;5014012;28;20014;-71
2023/03/29 00:25:12;;;;;;;10.80;6.23;;;8.20;57.40;;;;;;5014112;28;20453;-71
2023/03/29 00:27:38;;;;;;;10.03;6.03;;;8.20;57.20;;;;;;5013732;28;20025;-71
2023/03/29 00:30:06;;;;;;;9.63;6.43;;;8.20;57.90;;;;;;5013691;28;20021;-71
2023/03/29 00:32:33;;;;;;;11.27;6.20;;;8.20;58.10;;;;;;5012275;28;20072;-71
2023/03/29 00:35:04;;;;;;;12.53;6.50;;;8.20;58.40;;;;;;5013916;28;20018;-71
2023/03/29 00:37:30;;;;;;;12.93;6.07;;;8.20;58.10;;;;;;5013886;28;20066;-71
2023/03/29 00:39:57;;;;;;;8.33;5.40;;;8.20;57.60;;;;;;5013623;28;20065;-71
2023/03/29 00:42:23;;;;;;;10.67;5.57;;;8.10;57.40;;;;;;5013576;28;20030;-70
2023/03/29 00:45:17;;;;;;;11.17;5.10;;;8.10;57.40;;;;;;5013577;28;20060;-71
2023/03/29 00:47:54;;;;;;;9.70;5.70;;;8.00;57.80;;;;;;5013736;28;20117;-71
2023/03/29 00:50:21;;;;;;;12.60;5.23;;;8.00;57.90;;;;;;5013539;28;20454;-71
2023/03/29 00:52:58;;;;;;;12.30;5.23;;;8.00;57.90;;;;;;5013367;28;20030;-71
2023/03/29 00:55:27;;;;;;;8.97;5.07;;;8.00;58.10;;;;;;5013293;28;20022;-71
2023/03/29 00:57:55;;;;;;;10.17;5.37;;;8.00;58.30;;;;;;5012439;28;20037;-71
2023/03/29 01:00:27;;;;;;;9.10;5.53;;;7.90;58.20;;;;;;5010717;28;20129;-71
2023/03/29 01:02:58;;;;;;;10.13;5.17;;;7.90;58.60;;;;;;5010814;28;20080;-71
2023/03/29 01:05:39;;;;;;;7.50;4.60;;;7.90;58.80;;;;;;5012180;28;20033;-71
2023/03/29 01:08:16;;;;;;;7.30;4.43;;;7.90;58.50;;;;;;5013370;28;20076;-71
2023/03/29 01:10:46;;;;;;;9.73;5.47;;;7.90;58.50;;;;;;5013332;28;20036;-71
2023/03/29 01:13:25;;;;;;;9.43;5.10;;;7.90;59.30;;;;;;5012857;28;20029;-71
2023/03/29 01:15:53;;;;;;;8.10;4.60;;;7.90;59.60;;;;;;5013057;28;20470;-70
2023/03/29 01:18:21;;;;;;;10.27;4.63;;;7.90;58.50;;;;;;5013137;28;20112;-71
2023/03/29 01:21:06;;;;;;;10.63;5.20;;;7.90;58.40;;;;;;5012890;28;20037;-71
2023/03/29 01:23:51;;;;;;;7.40;4.63;;;7.90;58.60;;;;;;5013105;28;20489;-71
2023/03/29 01:26:41;;;;;;;8.00;4.30;;;7.90;58.30;;;;;;5012756;28;20050;-71
2023/03/29 01:29:13;;;;;;;7.10;4.30;;;7.90;57.50;;;;;;5012713;28;20026;-71
2023/03/29 01:31:44;;;;;;;7.33;4.47;;;7.90;57.20;;;;;;5012852;28;20097;-71
2023/03/29 01:34:30;;;;;;;9.37;4.27;;;7.90;57.20;;;;;;5012844;28;20022;-70
2023/03/29 01:37:23;;;;;;;8.97;4.90;;;7.90;57.10;;;;;;5012777;28;20373;-71
2023/03/29 01:39:51;;;;;;;7.53;4.35;;;7.90;56.60;;;;;;5012898;28;20026;-71
2023/03/29 01:42:38;;;;;;;6.63;4.23;;;8.00;57.00;;;;;;5012950;28;20022;-71
2023/03/29 01:45:22;;;;;;;9.67;4.70;;;7.90;57.70;;;;;;5012778;28;20034;-70
2023/03/29 01:47:57;;;;;;;11.53;5.10;;;7.90;58.20;;;;;;5012938;28;20030;-71
2023/03/29 01:50:35;;;;;;;7.40;4.80;;;7.90;58.60;;;;;;5012604;28;20050;-71
2023/03/29 01:53:30;;;;;;;8.00;4.90;;;7.90;58.30;;;;;;5012797;28;20030;-70
2023/03/29 01:56:03;;;;;;;10.70;4.70;;;7.90;58.00;;;;;;5013050;28;20045;-71
2023/03/29 01:58:34;;;;;;;7.63;4.80;;;7.90;58.30;;;;;;5016655;28;20079;-71
2023/03/29 02:01:04;;;;;;;7.80;4.50;;;7.90;58.20;;;;;;5016427;28;20038;-71
2023/03/29 02:03:32;;;;;;;7.77;4.80;;;7.90;58.30;;;;;;5016541;28;20026;-70
2023/03/29 02:05:59;;;;;;;6.83;4.10;;;7.90;58.50;;;;;;5016681;28;20026;-71
2023/03/29 02:08:26;;;;;;;7.03;3.97;;;8.00;59.00;;;;;;5016718;28;20022;-71
2023/03/29 02:10:52;;;;;;;12.13;4.60;;;7.90;59.80;;;;;;5016582;28;20034;-70
2023/03/29 02:13:18;;;;;;;7.70;4.77;;;8.00;59.70;;;;;;5016555;28;20072;-71
2023/03/29 02:15:45;;;;;;;7.63;5.00;;;8.00;59.30;;;;;;5016336;28;20103;-70
2023/03/29 02:18:15;;;;;;;7.37;4.87;;;8.00;59.00;;;;;;5016020;28;20025;-71
2023/03/29 02:20:46;;;;;;;8.00;4.00;;;8.00;59.30;;;;;;5016170;28;20061;-70
2023/03/29 02:23:14;;;;;;;5.50;3.40;;;8.00;59.80;;;;;;5016398;28;20025;-71
2023/03/29 02:25:42;;;;;;;7.17;3.67;;;8.00;59.50;;;;;;5016301;28;20034;-71
2023/03/29 02:28:08;;;;;;;5.67;3.60;;;8.00;59.00;;;;;;5016251;28;20045;-71
2023/03/29 02:30:50;;;;;;;6.10;3.33;;;8.10;59.20;;;;;;5016033;28;20026;-71
2023/03/29 02:33:24;;;;;;;6.70;3.03;;;8.10;59.20;;;;;;5016089;28;20022;-71
2023/03/29 02:36:06;;;;;;;4.97;2.97;;;8.10;58.80;;;;;;5016283;28;20033;-71
2023/03/29 02:38:33;;;;;;;4.60;2.50;;;8.10;58.70;;;;;;5014777;28;20109;-71
2023/03/29 02:40:59;;;;;;;8.23;2.90;;;8.10;58.30;;;;;;5015784;28;20041;-71
2023/03/29 02:43:27;;;;;;;8.67;2.73;;;8.10;58.50;;;;;;5015857;28;20048;-71
2023/03/29 02:45:53;;;;;;;3.87;2.30;;;8.10;58.80;;;;;;5015731;28;20057;-70
2023/03/29 02:48:22;;;;;;;3.60;2.20;;;8.10;58.20;;;;;;5015733;28;20032;-71
2023/03/29 02:50:52;;;;;;;3.00;2.00;;;8.10;58.30;;;;;;5013985;28;20061;-70
2023/03/29 02:53:23;;;;;;;3.43;1.97;;;8.10;58.70;;;;;;5015698;28;20084;-71
2023/03/29 02:55:49;;;;;;;4.83;2.10;;;8.10;58.10;;;;;;5015549;28;20029;-71
2023/03/29 02:58:14;;;;;;;3.53;1.90;;;8.10;57.30;;;;;;5015501;28;20104;-70
2023/03/29 03:00:46;;;;;;;3.30;1.77;;;8.10;57.30;;;;;;5015342;28;20030;-71
2023/03/29 03:03:14;;;;;;;3.80;2.13;;;8.10;57.40;;;;;;5015251;28;20026;-71
2023/03/29 03:05:40;;;;;;;3.80;2.00;;;8.20;57.00;;;;;;5015215;28;20033;-71
2023/03/29 03:08:06;;;;;;;6.77;2.30;;;8.20;57.00;;;;;;5015082;28;20092;-70
2023/03/29 03:10:34;;;;;;;4.20;2.60;;;8.20;57.30;;;;;;5015349;28;20029;-71
2023/03/29 03:13:00;;;;;;;8.83;3.63;;;8.20;57.20;;;;;;5015120;28;20045;-71
2023/03/29 03:15:26;;;;;;;6.20;3.43;;;8.10;57.80;;;;;;5015241;28;20064;-71
2023/03/29 03:17:53;;;;;;;8.87;3.20;;;8.00;59.30;;;;;;5015168;28;20022;-71
2023/03/29 03:20:21;;;;;;;6.23;3.83;;;8.00;59.90;;;;;;5014071;28;20363;-70
2023/03/29 03:22:47;;;;;;;5.40;3.20;;;8.00;60.60;;;;;;5015091;28;20052;-71
2023/03/29 03:25:15;;;;;;;5.83;3.40;;;8.00;60.50;;;;;;5014894;28;20188;-71
2023/03/29 03:27:41;;;;;;;4.97;3.30;;;8.00;60.90;;;;;;5013638;28;20032;-71
2023/03/29 03:30:09;;;;;;;6.60;3.70;;;8.00;61.00;;;;;;5014446;28;20041;-71
2023/03/29 03:32:36;;;;;;;8.20;3.73;;;8.00;60.80;;;;;;5014574;28;20056;-71
2023/03/29 03:35:04;;;;;;;5.90;3.57;;;7.90;61.60;;;;;;5014640;28;20117;-71
2023/03/29 03:37:30;;;;;;;6.00;3.70;;;8.00;61.50;;;;;;5014552;28;20113;-70
2023/03/29 03:39:56;;;;;;;6.67;3.70;;;8.00;61.60;;;;;;5014739;28;20030;-71
2023/03/29 03:42:22;;;;;;;6.63;3.43;;;8.00;62.10;;;;;;5014524;28;20359;-71
2023/03/29 03:44:48;;;;;;;5.40;3.13;;;8.00;61.70;;;;;;5015005;28;20014;-70
2023/03/29 03:47:14;;;;;;;9.13;3.70;;;7.90;61.40;;;;;;5015651;28;20496;-71
2023/03/29 03:49:41;;;;;;;7.47;3.50;;;8.00;61.10;;;;;;5016006;28;20053;-70
2023/03/29 03:52:07;;;;;;;7.20;4.60;;;8.00;61.00;;;;;;5014558;28;20038;-71
2023/03/29 03:54:33;;;;;;;7.43;3.53;;;7.90;61.40;;;;;;5014203;28;20542;-71
2023/03/29 03:56:59;;;;;;;5.47;3.33;;;7.90;61.40;;;;;;5014087;28;20097;-71
2023/03/29 03:59:25;;;;;;;4.63;3.00;;;7.90;61.40;;;;;;5014459;28;20030;-71
2023/03/29 04:01:51;;;;;;;4.33;2.60;;;8.00;60.90;;;;;;5014343;28;20555;-71
2023/03/29 04:04:18;;;;;;;8.23;2.80;;;8.00;60.30;;;;;;5014223;28;20382;-71
2023/03/29 04:06:44;;;;;;;6.50;2.00;;;7.90;60.40;;;;;;5014158;28;20176;-71
2023/03/29 04:09:10;;;;;;;3.53;1.90;;;8.00;60.10;;;;;;5014292;28;20029;-71
2023/03/29 04:11:36;;;;;;;4.80;1.40;;;8.00;59.30;;;;;;5012952;28;20053;-71
2023/03/29 04:14:03;;;;;;;4.17;1.77;;;8.00;58.90;;;;;;5014475;28;20407;-71
2023/03/29 04:16:29;;;;;;;3.00;1.90;;;8.00;58.90;;;;;;5014005;28;20504;-71
2023/03/29 04:18:55;;;;;;;2.80;1.50;;;8.00;58.80;;;;;;5013861;28;20390;-71
2023/03/29 04:21:21;;;;;;;4.67;1.93;;;8.00;58.80;;;;;;5013816;28;20033;-71
2023/03/29 04:23:46;;;;;;;5.27;2.30;;;8.00;58.90;;;;;;5014082;28;20029;-71
2023/03/29 04:26:14;;;;;;;8.37;2.60;;;8.10;58.90;;;;;;5031001;28;20044;-71
2023/03/29 04:28:40;;;;;;;6.00;2.73;;;8.10;59.00;;;;;;5032244;28;20351;-70
2023/03/29 04:31:11;;;;;;;4.33;2.57;;;8.00;59.50;;;;;;5033619;28;20025;-71
2023/03/29 04:33:37;;;;;;;7.93;2.30;;;8.10;60.10;;;;;;5033310;28;20022;-71
2023/03/29 04:36:04;;;;;;;4.10;2.20;;;8.10;59.90;;;;;;5033581;28;20022;-70
2023/03/29 04:38:30;;;;;;;10.33;2.37;;;8.10;59.60;;;;;;5032249;28;20516;-71
2023/03/29 04:40:56;;;;;;;9.73;2.30;;;8.00;59.60;;;;;;5033178;28;20029;-71
2023/03/29 04:43:22;;;;;;;6.33;2.40;;;8.10;60.30;;;;;;5033250;28;20017;-71
2023/03/29 04:45:48;;;;;;;6.37;2.13;;;8.10;60.90;;;;;;5033354;28;20109;-71
2023/03/29 04:48:14;;;;;;;7.27;2.57;;;8.10;60.90;;;;;;5033269;28;20045;-71
2023/03/29 04:50:40;;;;;;;8.50;2.97;;;8.10;61.20;;;;;;5032675;28;20390;-71
2023/03/29 04:53:06;;;;;;;7.20;3.37;;;8.10;61.00;;;;;;5033028;28;20079;-71
2023/03/29 04:55:32;;;;;;;10.93;2.87;;;8.00;61.00;;;;;;5032644;28;20111;-71
2023/03/29 04:57:58;;;;;;;10.30;2.77;;;8.10;60.80;;;;;;5033094;28;20053;-71
2023/03/29 05:00:26;;;;;;;10.33;2.07;;;8.00;59.50;;;;;;5032902;28;20037;-71
2023/03/29 05:02:52;;;;;;;6.23;2.87;;;8.00;60.20;;;;;;5032986;28;20025;-70
2023/03/29 05:05:18;;;;;;;6.80;2.30;;;8.00;60.90;;;;;;5032797;28;20021;-71
2023/03/29 05:07:44;;;;;;;4.10;2.40;;;7.90;61.50;;;;;;5032830;28;20030;-70
2023/03/29 05:10:10;;;;;;;4.33;2.57;;;8.00;61.30;;;;;;5032606;28;20126;-70
2023/03/29 05:12:36;;;;;;;4.93;2.70;;;8.00;61.70;;;;;;5032791;28;20030;-70
2023/03/29 05:15:05;;;;;;;5.23;2.67;;;7.90;61.50;;;;;;5032274;28;20030;-70
2023/03/29 05:17:31;;;;;;;11.60;3.00;;;7.80;61.00;;;;;;5032223;28;20031;-71
2023/03/29 05:19:57;;;;;;;6.90;3.00;;;7.80;60.80;;;;;;5032604;28;20092;-71
2023/03/29 05:22:23;;;;;;;4.80;2.40;;;7.80;61.20;;;;;;5032612;28;20033;-71
2023/03/29 05:24:50;;;;;;;5.20;2.50;;;7.80;61.90;;;;;;5032634;28;20422;-71
2023/03/29 05:27:16;;;;;;;9.77;2.90;;;7.80;62.40;;;;;;5032776;28;20030;-71
2023/03/29 05:29:43;;;;;;;9.97;3.07;;;7.80;62.50;;;;;;5031318;28;20022;-70
2023/03/29 05:32:09;;;;;;;7.63;2.37;;;7.80;62.50;;;;;;5034580;28;20032;-71
2023/03/29 05:34:36;;;;;;;4.93;2.20;;;7.80;62.30;;;;;;5037150;28;20073;-71
2023/03/29 05:37:01;;;;;;;4.03;2.00;;;7.80;61.80;;;;;;5037026;28;20034;-71
2023/03/29 05:39:27;;;;;;;4.83;2.03;;;7.90;61.50;;;;;;5036589;28;20083;-71
2023/03/29 05:41:53;;;;;;;5.60;1.80;;;7.90;61.50;;;;;;5036631;28;20099;-71
2023/03/29 05:44:20;;;;;;;15.97;2.40;;;8.00;61.40;;;;;;5036669;28;20104;-71
2023/03/29 05:46:45;;;;;;;38.57;3.30;;;8.00;61.20;;;;;;5036736;28;20029;-71
2023/03/29 05:49:11;;;;;;;32.77;3.30;;;8.00;61.70;;;;;;5036450;28;20370;-71
2023/03/29 05:51:37;;;;;;;16.90;3.10;;;8.00;62.30;;;;;;5036051;28;20064;-71
2023/03/29 05:54:03;;;;;;;16.60;2.97;;;8.10;62.40;;;;;;5036310;28;20489;-71
2023/03/29 05:56:29;;;;;;;10.00;2.83;;;8.10;62.00;;;;;;5035284;28;20021;-71
2023/03/29 05:58:57;;;;;;;15.57;3.37;;;8.10;62.60;;;;;;5036501;28;20108;-70
2023/03/29 06:01:24;;;;;;;16.10;3.43;;;8.10;62.50;;;;;;5036078;28;20120;-71
2023/03/29 06:03:51;;;;;;;17.23;3.57;;;8.10;62.50;;;;;;5024828;28;20030;-71
2023/03/29 06:06:16;;;;;;;10.27;3.30;;;8.10;62.60;;;;;;5012021;28;20526;-70
2023/03/29 06:08:43;;;;;;;19.87;3.63;;;8.10;63.20;;;;;;4999434;28;20161;-69
2023/03/29 06:11:11;;;;;;;15.53;4.40;;;8.10;62.80;;;;;;5001580;28;20026;-69
2023/03/29 06:13:37;;;;;;;11.40;4.27;;;8.10;62.90;;;;;;4996857;28;20038;-70
2023/03/29 06:16:07;;;;;;;20.70;3.93;;;8.10;63.10;;;;;;4996975;28;20117;-69
2023/03/29 06:18:33;;;;;;;22.90;4.30;;;8.10;63.70;;;;;;4996313;28;20080;-70
2023/03/29 06:21:01;;;;;;;20.13;4.00;;;8.10;63.80;;;;;;4996573;28;20522;-69
2023/03/29 06:23:27;;;;;;;19.80;4.23;;;8.10;63.70;;;;;;4996377;28;20038;-69
2023/03/29 06:25:54;;;;;;;16.90;5.37;;;8.20;63.70;;;;;;4996619;28;20026;-68
2023/03/29 06:28:20;;;;;;;15.27;4.50;;;8.20;63.30;;;;;;4996421;28;20101;-69
2023/03/29 06:30:46;;;;;;;15.67;4.57;;;8.20;63.00;;;;;;4996536;28;20060;-68
2023/03/29 06:33:13;;;;;;;23.07;4.50;;;8.20;63.10;;;;;;4996442;28;20450;-69
2023/03/29 06:35:44;;;;;;;26.63;5.20;;;8.30;63.20;;;;;;4996114;28;20038;-69
2023/03/29 06:38:10;;;;;;;41.53;6.10;;;8.30;63.20;;;;;;4995920;28;20501;-69
2023/03/29 06:40:38;;;;;;;20.90;5.20;;;8.40;63.00;;;;;;4996121;28;20038;-66
2023/03/29 06:43:04;;;;;;;33.43;5.20;;;8.40;63.30;;;;;;4996098;28;20084;-66
2023/03/29 06:45:37;;;;;;;20.80;4.23;;;8.40;63.40;;;;;;4996311;28;20471;-67
2023/03/29 06:48:05;;;;;;;30.43;3.87;;;8.40;63.60;;;;;;4996096;28;20018;-66
2023/03/29 06:50:31;;;;;;;26.93;3.33;;;8.50;63.40;;;;;;4995931;28;20402;-67
2023/03/29 06:52:57;;;;;;;6.60;3.47;;;8.50;62.60;;;;;;4996044;28;20087;-66
2023/03/29 06:55:24;;;;;;;6.03;1.87;;;8.60;61.50;;;;;;4995741;28;20038;-66
2023/03/29 06:57:51;;;;;;;11.13;2.60;;;8.70;60.90;;;;;;4995572;28;20376;-66
2023/03/29 07:00:18;;;;;;;9.03;2.87;;;8.80;60.60;;;;;;4994935;28;20057;-66
2023/03/29 07:02:45;;;;;;;9.53;2.87;;;8.90;60.30;;;;;;4995996;28;20045;-66
2023/03/29 07:05:12;;;;;;;6.70;2.60;;;8.90;60.00;;;;;;4995735;28;20483;-66
2023/03/29 07:07:59;;;;;;;11.07;3.60;;;9.00;59.70;;;;;;4995666;28;20046;-66
2023/03/29 07:10:36;;;;;;;5.87;2.70;;;9.10;59.60;;;;;;4995456;28;20505;-66
2023/03/29 07:13:04;;;;;;;3.57;2.17;;;9.20;59.30;;;;;;4995570;28;20018;-67
2023/03/29 07:15:32;;;;;;;7.63;2.37;;;9.20;58.80;;;;;;4995918;28;20029;-68
2023/03/29 07:17:58;;;;;;;9.23;2.50;;;9.30;58.60;;;;;;4994485;28;20023;-67
2023/03/29 07:20:25;;;;;;;7.10;2.20;;;9.30;58.50;;;;;;4995362;28;20049;-67
2023/03/29 07:22:52;;;;;;;7.03;2.63;;;9.40;58.70;;;;;;4995761;28;20022;-68
2023/03/29 07:25:21;;;;;;;7.00;2.17;;;9.50;58.30;;;;;;4995546;28;20041;-68
2023/03/29 07:27:47;;;;;;;5.80;2.20;;;9.50;57.70;;;;;;4995390;28;20050;-67
2023/03/29 07:30:16;;;;;;;3.90;2.07;;;9.60;57.40;;;;;;4994774;28;20023;-67
2023/03/29 07:32:44;;;;;;;5.93;2.17;;;9.70;57.10;;;;;;4995225;28;20471;-67
2023/03/29 07:35:11;;;;;;;4.03;1.90;;;9.70;56.60;;;;;;4995367;28;20022;-68
2023/03/29 07:37:38;;;;;;;5.33;2.20;;;9.80;55.60;;;;;;4995260;28;20498;-66
2023/03/29 07:40:11;;;;;;;4.40;2.13;;;9.90;54.60;;;;;;4995089;28;20491;-67
2023/03/29 07:42:38;;;;;;;8.60;2.73;;;10.00;54.90;;;;;;4993964;28;20422;-66
2023/03/29 07:45:05;;;;;;;7.60;2.70;;;10.10;55.40;;;;;;4995156;28;20057;-66
2023/03/29 07:47:31;;;;;;;9.83;2.67;;;10.20;55.70;;;;;;4995104;28;20026;-67
2023/03/29 07:49:58;;;;;;;6.83;2.70;;;10.30;55.10;;;;;;4995027;28;20053;-66
2023/03/29 07:52:26;;;;;;;9.43;3.53;;;10.30;54.70;;;;;;4994862;28;20029;-66
2023/03/29 07:54:54;;;;;;;6.73;3.40;;;10.40;54.20;;;;;;4994195;28;20030;-65
2023/03/29 07:57:21;;;;;;;11.17;3.00;;;10.40;53.70;;;;;;4994881;28;20485;-66
2023/03/29 07:59:46;;;;;;;11.97;3.20;;;10.50;53.70;;;;;;4994726;28;20058;-66
2023/03/29 08:02:12;;;;;;;9.00;1.80;;;10.60;53.70;;;;;;4994982;28;20104;-66
2023/03/29 08:04:39;;;;;;;2.80;1.50;;;10.70;53.20;;;;;;4994908;28;20045;-66
2023/03/29 08:07:05;;;;;;;5.87;1.80;;;10.70;51.80;;;;;;4994687;28;20018;-66
2023/03/29 08:09:30;;;;;;;3.60;1.60;;;10.70;51.30;;;;;;4994750;28;20030;-66
2023/03/29 08:11:56;;;;;;;2.23;1.20;;;10.80;51.70;;;;;;4994591;28;20035;-66
2023/03/29 08:14:22;;;;;;;3.53;0.80;;;10.90;51.60;;;;;;4994403;28;20030;-66
2023/03/29 08:16:48;;;;;;;5.85;1.00;;;11.00;50.70;;;;;;4994352;28;20026;-66
2023/03/29 08:19:15;;;;;;;3.25;1.00;;;11.10;50.60;;;;;;4994430;28;20053;-67
2023/03/29 08:21:41;;;;;;;1.30;0.77;;;11.10;49.90;;;;;;4994661;28;20045;-66
2023/03/29 08:24:07;;;;;;;1.93;0.80;;;11.20;50.10;;;;;;4993238;28;20035;-66
2023/03/29 08:26:32;;;;;;;2.05;0.80;;;11.20;49.80;;;;;;4994442;28;20471;-66
2023/03/29 08:28:58;;;;;;;2.22;1.13;;;11.20;49.70;;;;;;4994254;28;20069;-66
2023/03/29 08:31:24;;;;;;;5.35;0.88;;;11.30;49.90;;;;;;4994369;28;20038;-66
2023/03/29 08:33:50;;;;;;;1.80;0.77;;;11.40;49.40;;;;;;4994442;28;20034;-66
2023/03/29 08:36:16;;;;;;;7.03;1.43;;;11.40;49.30;;;;;;4994296;28;20034;-66
2023/03/29 08:38:42;;;;;;;1.73;0.88;;;11.50;49.70;;;;;;4994405;28;20034;-66
2023/03/29 08:41:26;;;;;;;2.97;0.90;;;11.50;49.90;;;;;;4994518;28;20039;-66
2023/03/29 08:44:10;;;;;;;2.67;1.10;;;11.70;50.50;;;;;;4993907;28;20498;-66
2023/03/29 08:46:56;;;;;;;3.85;1.20;;;11.70;50.70;;;;;;4993936;28;20031;-66
2023/03/29 08:49:22;;;;;;;4.35;0.98;;;11.80;50.60;;;;;;4993885;28;20113;-66
2023/03/29 08:51:54;;;;;;;2.50;1.10;;;11.80;50.40;;;;;;4993985;28;20519;-66
2023/03/29 08:54:26;;;;;;;3.35;1.00;;;11.90;50.60;;;;;;4993980;28;20026;-66
2023/03/29 08:56:56;;;;;;;3.15;1.05;;;11.90;51.00;;;;;;4993803;28;20034;-66
2023/03/29 08:59:28;;;;;;;5.03;1.00;;;12.00;51.80;;;;;;4993804;28;20475;-67
2023/03/29 09:01:57;;;;;;;4.15;1.10;;;12.00;52.70;;;;;;4993619;28;20057;-66
2023/03/29 09:04:27;;;;;;;3.40;0.80;;;12.10;52.60;;;;;;4993670;28;20110;-66
2023/03/29 09:06:53;;;;;;;3.28;1.02;;;12.20;52.90;;;;;;4993648;28;20467;-66
2023/03/29 09:09:21;;;;;;;4.93;1.00;;;12.20;53.10;;;;;;4993705;28;20394;-66
2023/03/29 09:11:52;;;;;;;2.28;0.80;;;12.30;53.40;;;;;;4993540;28;20076;-66
2023/03/29 09:14:50;;;;;;;5.88;1.20;;;12.30;52.80;;;;;;4993701;28;20030;-66
2023/03/29 09:17:16;;;;;;;1.80;1.00;;;12.40;52.90;;;;;;4992244;28;20030;-66
2023/03/29 09:19:48;;;;;;;4.97;1.05;;;12.40;53.20;;;;;;4993722;28;20049;-65
2023/03/29 09:22:22;;;;;;;4.23;1.30;;;12.50;53.60;;;;;;4993622;28;20034;-66
2023/03/29 09:25:08;;;;;;;3.33;1.55;;;12.60;53.90;;;;;;4993703;28;20835;-65
2023/03/29 09:27:43;;;;;;;6.35;1.05;;;12.70;53.90;;;;;;4993583;28;20034;-66
2023/03/29 09:30:24;;;;;;;10.30;1.35;;;12.80;54.40;;;;;;4993615;28;20030;-66
2023/03/29 09:32:56;;;;;;;5.30;1.05;;;12.90;54.70;;;;;;4993517;28;20518;-66
2023/03/29 09:36:03;;;;;;;3.30;1.00;;;13.00;54.30;;;;;;4993534;28;20022;-66
2023/03/29 09:38:32;;;;;;;6.50;1.35;;;13.00;55.00;;;;;;4993037;28;20037;-67
2023/03/29 09:41:20;;;;;;;7.43;1.27;;;13.00;55.40;;;;;;4993072;28;20034;-66
2023/03/29 09:43:49;;;;;;;5.40;1.10;;;13.10;55.00;;;;;;4992166;28;20030;-66
2023/03/29 09:46:29;;;;;;;5.50;1.27;;;13.10;55.00;;;;;;4993444;28;20034;-66
2023/03/29 09:48:55;;;;;;;7.10;1.20;;;13.20;55.50;;;;;;4992179;28;20031;-67
2023/03/29 09:51:25;;;;;;;3.65;1.15;;;13.20;55.40;;;;;;4993128;28;20138;-66
2023/03/29 09:53:53;;;;;;;7.90;1.40;;;13.20;55.20;;;;;;4993477;28;20029;-67
2023/03/29 09:56:19;;;;;;;2.35;0.90;;;13.20;55.30;;;;;;4993361;28;20030;-66
2023/03/29 09:58:45;;;;;;;2.75;1.30;;;13.20;55.10;;;;;;4993218;28;20119;-66
2023/03/29 10:01:16;;;;;;;6.70;1.23;;;13.20;55.20;;;;;;4993232;28;20093;-66
2023/03/29 10:03:47;;;;;;;4.13;1.10;;;13.30;55.40;;;;;;4992796;28;20029;-66
2023/03/29 10:06:13;;;;;;;7.32;0.85;;;13.30;55.20;;;;;;4993212;28;20034;-66
2023/03/29 10:08:49;;;;;;;7.05;1.27;;;13.30;56.00;;;;;;4993068;28;20101;-66
2023/03/29 10:11:28;;;;;;;4.22;1.23;;;13.40;55.80;;;;;;4993083;28;20384;-66
2023/03/29 10:13:59;;;;;;;7.35;1.08;;;13.50;55.70;;;;;;4992951;28;20077;-66
2023/03/29 10:16:40;;;;;;;5.32;1.27;;;13.50;54.90;;;;;;4993298;28;20058;-66
2023/03/29 10:19:27;;;;;;;6.95;1.70;;;13.50;55.20;;;;;;4996213;28;20493;-67
2023/03/29 10:21:54;;;;;;;3.75;1.17;;;13.60;55.00;;;;;;4996564;28;20034;-66
2023/03/29 10:24:25;;;;;;;3.20;1.10;;;13.60;55.20;;;;;;4996417;28;20026;-66
2023/03/29 10:27:03;;;;;;;6.35;1.30;;;13.70;54.60;;;;;;4996284;28;20105;-66
2023/03/29 10:29:39;;;;;;;9.40;1.73;;;13.70;54.80;;;;;;4996420;28;20026;-66
2023/03/29 10:32:21;;;;;;;5.55;1.10;;;13.70;55.30;;;;;;4996362;28;20479;-66
2023/03/29 10:34:49;;;;;;;8.05;1.50;;;13.80;55.70;;;;;;4996214;28;20058;-66
2023/03/29 10:37:18;;;;;;;6.03;1.40;;;13.80;55.20;;;;;;4996177;28;20089;-66
2023/03/29 10:39:45;;;;;;;8.57;1.73;;;13.90;54.80;;;;;;4996187;28;20083;-67
2023/03/29 10:42:17;;;;;;;4.53;1.38;;;13.90;55.00;;;;;;4995996;28;20121;-67
2023/03/29 10:44:57;;;;;;;3.95;1.35;;;14.00;55.10;;;;;;4996317;28;20026;-66
2023/03/29 10:47:24;;;;;;;4.45;1.58;;;14.10;54.30;;;;;;4996156;28;20101;-66
2023/03/29 10:49:52;;;;;;;4.25;1.08;;;14.20;53.90;;;;;;4996033;28;20372;-67
2023/03/29 10:52:19;;;;;;;5.85;1.35;;;14.20;53.30;;;;;;4996144;28;20153;-66
2023/03/29 10:54:46;;;;;;;4.43;1.40;;;14.20;52.80;;;;;;4995962;28;20148;-66
2023/03/29 10:57:18;;;;;;;4.28;1.10;;;14.30;52.90;;;;;;4995710;28;20035;-67
2023/03/29 10:59:56;;;;;;;5.57;1.48;;;14.30;52.40;;;;;;4994889;28;20027;-66
2023/03/29 11:02:38;;;;;;;7.00;1.48;;;14.40;52.20;;;;;;4994570;28;20078;-66
2023/03/29 11:05:24;;;;;;;4.87;1.23;;;14.40;51.90;;;;;;4995956;28;20030;-66
2023/03/29 11:08:08;;;;;;;2.72;1.30;;;14.50;52.20;;;;;;4995578;28;20037;-66
2023/03/29 11:10:54;;;;;;;4.50;1.42;;;14.60;52.20;;;;;;4995683;28;20033;-66
2023/03/29 11:14:14;;;;;;;6.53;1.30;;;14.70;51.90;;;;;;4995802;28;20050;-66
2023/03/29 11:17:15;;;;;;;2.90;1.10;;;14.80;51.40;;;;;;4954974;28;20617;-67
2023/03/29 11:19:55;;;;;;;3.85;1.20;;;14.90;51.00;;;;;;4995479;28;20022;-66
2023/03/29 11:22:37;;;;;;;3.72;1.42;;;14.90;51.00;;;;;;4995166;28;20034;-66
2023/03/29 11:25:37;;;;;;;4.57;1.40;;;15.10;51.90;;;;;;4995181;28;20031;-67
2023/03/29 11:28:11;;;;;;;5.43;1.55;;;15.20;52.10;;;;;;4995084;28;20057;-66
2023/03/29 11:30:55;;;;;;;6.32;1.40;;;15.20;51.10;;;;;;4994340;28;20478;-67
2023/03/29 11:33:49;;;;;;;4.07;1.25;;;15.30;50.60;;;;;;4995467;28;20062;-66
2023/03/29 11:36:16;;;;;;;6.85;1.20;;;15.40;51.30;;;;;;4995200;28;20018;-66
2023/03/29 11:38:55;;;;;;;5.15;1.25;;;15.40;50.70;;;;;;4994811;28;20037;-66
2023/03/29 11:41:23;;;;;;;7.38;1.92;;;15.50;51.00;;;;;;4994894;28;20031;-66
2023/03/29 11:43:53;;;;;;;8.63;1.58;;;15.50;50.70;;;;;;4995024;28;20486;-67
2023/03/29 11:46:53;;;;;;;5.25;1.40;;;15.60;50.70;;;;;;4994964;28;20137;-66
2023/03/29 11:49:24;;;;;;;4.43;1.52;;;15.70;50.70;;;;;;4986765;28;20100;-66
2023/03/29 11:51:55;;;;;;;5.93;1.27;;;15.70;51.30;;;;;;4994728;28;20038;-66
2023/03/29 11:54:27;;;;;;;3.88;1.40;;;15.80;51.00;;;;;;4994790;28;20026;-66
2023/03/29 11:57:17;;;;;;;3.70;1.08;;;15.90;51.10;;;;;;4994776;28;20033;-66
2023/03/29 12:00:07;;;;;;;7.38;1.63;;;15.80;50.90;;;;;;4994710;28;20040;-66
2023/03/29 12:02:42;;;;;;;5.72;1.52;;;16.00;52.50;;;;;;4994322;28;20026;-66
2023/03/29 12:05:23;;;;;;;4.80;1.58;;;16.10;51.80;;;;;;4994208;28;20030;-66
2023/03/29 12:07:59;;;;;;;4.07;1.50;;;16.20;51.80;;;;;;4994213;28;20023;-66
2023/03/29 12:10:50;;;;;;;7.28;1.50;;;16.20;51.10;;;;;;4994387;28;20031;-67
2023/03/29 12:13:31;;;;;;;7.43;1.48;;;16.30;51.80;;;;;;4976222;28;20363;-68
2023/03/29 12:16:05;;;;;;;7.10;1.45;;;16.40;52.00;;;;;;4994007;28;20046;-68
2023/03/29 12:18:44;;;;;;;5.53;1.30;;;16.50;50.70;;;;;;4994031;28;20034;-68
2023/03/29 12:21:17;;;;;;;8.38;1.63;;;16.50;50.50;;;;;;4993845;28;20038;-68
2023/03/29 12:23:44;;;;;;;4.88;1.55;;;16.60;48.70;;;;;;4993860;28;20104;-67
2023/03/29 12:26:40;;;;;;;5.30;1.50;;;16.60;47.20;;;;;;4993688;28;20023;-68
2023/03/29 12:29:11;;;;;;;7.30;1.70;;;16.70;47.60;;;;;;4993797;28;20036;-68
2023/03/29 12:31:53;;;;;;;5.35;1.80;;;16.70;46.40;;;;;;4994286;28;20033;-68
2023/03/29 12:34:25;;;;;;;;;;;16.80;46.00;;;;;;4994644;28;20041;-68
2023/03/29 12:37:16;;;;;;;4.15;1.50;;;16.90;46.00;;;;;;4994120;28;20373;-68
2023/03/29 12:39:42;;;;;;;5.43;1.80;;;17.00;46.20;;;;;;4993918;28;20023;-68
2023/03/29 12:42:15;;;;;;;2.78;1.45;;;17.10;45.90;;;;;;4993468;28;20038;-68
2023/03/29 12:44:50;;;;;;;5.20;1.48;;;17.10;45.40;;;;;;4993869;28;20018;-68
2023/03/29 12:47:22;;;;;;;4.22;1.63;;;17.20;44.70;;;;;;4993912;28;20593;-68
2023/03/29 12:49:56;;;;;;;2.85;1.50;;;17.30;44.80;;;;;;4993648;28;20054;-68
2023/03/29 12:52:33;;;;;;;6.90;1.90;;;17.30;44.80;;;;;;4993887;28;20029;-68
2023/03/29 12:55:03;;;;;;;3.78;1.60;;;17.40;43.90;;;;;;4993758;28;20069;-68
2023/03/29 12:57:41;;;;;;;3.05;1.85;;;17.40;44.20;;;;;;4992080;28;20022;-68
2023/03/29 13:00:18;;;;;;;3.75;1.65;;;17.50;44.80;;;;;;4993473;28;20022;-67
2023/03/29 13:02:44;;;;;;;8.00;2.13;;;17.50;43.80;;;;;;4993603;28;20137;-67
2023/03/29 13:05:30;;;;;;;3.90;1.58;;;17.50;43.50;;;;;;4993340;28;20670;-68
2023/03/29 13:07:56;;;;;;;2.47;1.60;;;17.50;43.00;;;;;;4993448;28;20623;-68
2023/03/29 13:10:39;;;;;;;2.75;1.42;;;17.50;41.60;;;;;;4993518;28;20026;-67